メインページ
METAR-TAF:

METAR-TAF

空港 :

アカプルコ, メキシコ

アカプルコ国際空港

緯度: 16-46N, 経度: 099-45W, 海抜: 5m

現時点の気象観測

当レポートは1時間8分前の10:45(UTC)に作成
無風
気温 22°C
湿度 94%
気圧 1010 hPa
視程: 8.0km
晴天

METAR: MMAA 231045Z 00000KT 5SM SKC 22/21 A2982 RMK HZY

時間: 06:53 (11:53 UTC)

予報

当レポートは44分前の11:09(UTC)に作成
予報は23日の 12時(UTC)から 24日の 18時(UTC)まで有効
北/北東の風 5kt
視程: 8.0km
高度25000ftの雲は散在している
煙霧
23日の 1600時(UTC)から
南西の風 10kt
視程: 10km
晴天
24日の 0300時(UTC)から
北/北東の風 5kt
視程: 9.7km
高度25000ftの雲は散在している
煙霧
24日の 1600時(UTC)から
南西の風 10kt
視程: 10km
高度30000ftの雲は散在している

TAF: MMAA 231109Z 2312/2418 03005KT 5SM HZ SCT250 TX28/2318Z TN21/2312Z FM231600 23010KT P6SM SKC FM240300 03005KT 6SM HZ SCT250 FM241600 23010KT P6SM SCT300

4,000以上の空港の気象観測と天気予報(METAR報とTAF報)

利用可能な観測所は地図上に黄色い丸と赤い丸で示す。

丸の上にカーソルを重ねると観測所名を参照できる。

次にクリックすると気象観測と天気予報を参照できる。

マップの切り替え:黒色「×」印の緑ボタンをクリックして拡大、「-」印の緑ボタンをクリックして縮小、緑色の三角印をクリックして隣りの地図に切り替え


METAR-TAF: